KCAO

Clayton Municipal Arpk Airport

Clayton, New Mexico, USA
METAR KCAO 101455Z AUTO 32004KT 10SM CLR 01/M10 A3029 RMK AO2 SLP273 T00111100 50008
Observed Flight Rules
Dec-10 @ 14:55 UTC (22 minutes ago) Visual Flight Rules
Wind Visibility Clouds
320° at 4 knots 10 miles
  • Clear skies
Temperatures Readings
Current 1°C / 34°F
Dewpoint -10°C / 14°F
Humidity 44%
Altimeter 30.29" Hg
Pressure 1027.3 hPa
Elevation 1514
METAR KCAO 101455Z AUTO 32004KT 10SM CLR 01/M10 A3029 RMK AO2 SLP273 T00111100 50008
Observed Flight Rules
Dec-10 @ 14:55 UTC
(22 minutes ago)
VFR
Wind Visibility
320° at 4 knots 10 miles
Clouds
  • Clear skies
Temperature Dewpoint
1°C / 34°F -10°C / 14°F
Humidity Altimeter Pressure
44% 30.29" Hg 1027.3 hPa